ADDS METAR Data INFO
IDs: Format: Raw Decoded Include TAF

Data at: 0152 UTC 17 Oct 2017

KRSL 170053Z AUTO 16010KT 10SM CLR 14/03 A3016 RMK AO2 SLP217 T01440033
KRSL 162353Z AUTO 18010KT 10SM CLR 18/02 A3015 RMK AO2 SLP212 T01780022 10239 20178 56009
KRSL 162253Z AUTO 19017G24KT 10SM CLR 22/02 A3015 RMK AO2 PK WND 20026/2227 SLP209 T02170022
KRSL 162153Z AUTO 20018G22KT 10SM CLR 23/01 A3016 RMK AO2 PK WND 21028/2100 SLP213 T02280011
KRSL 162053Z AUTO 21019G27KT 10SM CLR 24/00 A3018 RMK AO2 PK WND 19031/2021 SLP217 T02390000 56036
KRSL 161953Z AUTO 20022G29KT 10SM CLR 23/01 A3021 RMK AO2 PK WND 21029/1947 SLP228 T02330006
KRSL 161853Z AUTO 20019G27KT 10SM CLR 23/01 A3025 RMK AO2 PK WND 20027/1849 SLP239 T02330011
KRSL 161753Z AUTO 21017G25KT 10SM CLR 22/03 A3029 RMK AO2 SLP256 T02170028 10217 20033 58021
KRSL 161653Z AUTO 21016KT 10SM CLR 20/03 A3032 RMK AO2 SLP266 T02000028
KRSL 161553Z AUTO 21015KT 10SM CLR 17/04 A3034 RMK AO2 SLP277 T01670039
KRSL 161453Z AUTO 22013KT 10SM CLR 11/04 A3036 RMK AO2 SLP286 T01060039 55001
KRSL 161353Z AUTO 21008KT 10SM CLR 06/03 A3035 RMK AO2 SLP286 T00610028 $
KRSL 161253Z AUTO 21011KT 10SM CLR 03/02 A3035 RMK AO2 SLP286 T00330017 $
KRSL 161153Z AUTO 21007KT 10SM CLR 03/02 A3036 RMK AO2 SLP286 T00330017 10061 20033 56002 $
KRSL 161053Z AUTO 23008KT 10SM CLR 04/02 A3036 RMK AO2 SLP283 T00440022 $
KRSL 160953Z AUTO 22007KT 10SM CLR 03/02 A3036 RMK AO2 SLP284 T00330022 $
KRSL 160853Z AUTO 21007KT 10SM CLR 03/02 A3036 RMK AO2 SLP286 T00330022 58004 $
KRSL 160753Z AUTO 21007KT 10SM CLR 03/02 A3038 RMK AO2 SLP291 T00330022 $
KRSL 160653Z AUTO 21007KT 10SM CLR 05/02 A3038 RMK AO2 SLP290 T00500022 $
KRSL 160553Z AUTO 20006KT 10SM CLR 06/02 A3038 RMK AO2 SLP291 T00610022 10156 20050 401780028 51002 $
KRSL 160453Z AUTO 22006KT 10SM CLR 07/03 A3038 RMK AO2 SLP291 T00720028 $
KRSL 160353Z AUTO 19008KT 10SM CLR 07/03 A3038 RMK AO2 SLP293 T00720028 $
KRSL 160253Z AUTO 19007KT 10SM CLR 07/03 A3037 RMK AO2 SLP291 T00720028 51003 $
KRSL 160153Z AUTO 15005KT 10SM CLR 09/02 A3037 RMK AO2 SLP292 T00890022 $
KRSL 160053Z AUTO 00000KT 10SM CLR 11/02 A3036 RMK AO2 SLP290 T01060022 $
KRSL 152353Z AUTO 00000KT 10SM CLR 16/01 A3036 RMK AO2 SLP286 T01560011 10178 20139 55007 $
KRSL 152253Z AUTO 30008KT 10SM CLR 17/01 A3036 RMK AO2 SLP283 T01720006 $
KRSL 152153Z AUTO 31008KT 10SM CLR 18/00 A3037 RMK AO2 SLP285 T01780000 $
KRSL 152053Z AUTO 31010G17KT 10SM CLR 18/M01 A3038 RMK AO2 SLP289 T01781006 56018 $
KRSL 151953Z AUTO 31006KT 10SM CLR 16/M01 A3039 RMK AO2 SLP291 T01611006 $
KRSL 151853Z AUTO VRB05KT 10SM CLR 15/02 A3041 RMK AO2 SLP300 T01500017 $
KRSL 151753Z AUTO 32007KT 10SM CLR 14/02 A3044 RMK AO2 SLP309 T01390022 10139 20028 50003 $
KRSL 151653Z AUTO 33010KT 10SM CLR 12/03 A3045 RMK AO2 SLP315 T01220033 $
KRSL 151553Z AUTO 32010KT 10SM CLR 10/04 A3045 RMK AO2 SLP315 T01000039 $
KRSL 151453Z AUTO 33013KT 10SM CLR 08/04 A3043 RMK AO2 SLP309 T00780039 52019 $
KRSL 151353Z AUTO 32010KT 10SM CLR 05/04 A3041 RMK AO2 SLP305 T00500039 $